Anaconda, MT

1:34 AM MDT on September 01, 2014 (GMT -0600)
RAWS YANKEE FLAT MT US | Change Station
CLOSE
Current Station
Personal Weather Station
Location: Anaconda, MT
Elevation: 6000 ft
Nearby Weather Stations

Elev 6000 ft 46.16 °N, 113.14 °W | Updated 54 minutes ago

Partly Cloudy
Partly Cloudy
44 °F
Feels Like 42 °F
N
4
Wind Variable Wind from NW
Gusts 7.0 mph

Today
High -- | Low -- °F
--% Chance of Precip.
Yesterday
High -- | Low -- °F
Precip. -- in
6:52 AM 8:10 PM
Waxing Crescent, 38% visible
Pressure 29.96 in
Visibility 10.0 miles
Clouds Clear
Windchill 42 °F
Dew Point 35 °F
Humidity 70%
Rainfall 0.01 in
Snow Depth Not available.
UV 0 out of 12
Pollen 3.30 out of 12
Air Quality Not available.
Flu Activity Not available.
METAR KBTM 010653Z AUTO 29005KT 10SM CLR 09/03 A3005 RMK AO2 SLP144 T00890028 401780061

More Conditions Fewer Conditions

Pressure 29.96 in
Visibility 10.0 miles
Clouds Clear
Windchill 42 °F
Dew Point 35 °F
Humidity 70%
Rainfall 0.01 in
Snow Depth Not available.
UV 0 out of 12
Pollen 3.30 out of 12
Air Quality Not available.
Flu Activity Not available.
METAR KBTM 010653Z AUTO 29005KT 10SM CLR 09/03 A3005 RMK AO2 SLP144 T00890028 401780061

More Conditions Fewer Conditions

10-Day Weather Forecast

Almanac

Astronomy

Sep. 01, 2014 Rise Set
Actual Time 6:52 AM MDT 8:10 PM MDT
Civil Twilight 6:21 AM MDT 8:41 PM MDT
Nautical Twilight 5:44 AM MDT 9:18 PM MDT
Astronomical Twilight 5:04 AM MDT 9:58 PM MDT
Moon 2:04 PM MDT 11:52 PM MDT
Length of Visible Light 14h 19m
Length of Day
13h 17m
Tomorrow will be 3m 9s shorter.
Waxing Crescent, 38% of the Moon is Illuminated
Today
Waxing Crescent
Sep 2
First Quarter
Sep 8
Full
Sep 15
Last Quarter
Sep 24
New

Today's Extremes

State Highs State Lows

Community

WunderPhotos

Upload Photos

1,749,154 photos uploaded!

Nearby

Snow Depth

Station Depth Elevation
Barker Lakes 0 in 8250 ft
Warm Springs 0 in 7800 ft
Peterson Meadows 0 in 7200 ft
Black Pine 1 in 7210 ft
Combination 0 in 5600 ft

Earthquake Activity

City Distance Mag. Time & Date
No recent earthquake activity has been reported nearby.
Minimum magnitude displayed is 2.5.

Coastal Water Temperatures

Place Temperature
No Stations Reporting

Nearby Weather Stations